PWSweather.com
Personal Weather Stations
Station Observations
KVAGLENALL
West Henrico, Glen Allen, VA 23060-6503

West HenricoGlen Allen, VA 23060-6503

Lat: 37.6554, Lon: -77.5693

Elevation: 273

Station Type: Davis Vantage Pro II

www.glenallenweather.com

High Low Average
Temperature 56.2°F13.4°C 37.7°F3.2°C 50.5°F10.3°C
Dew Point 55.7°F13.2°C 37.1°F2.8°C 47.8°F8.8°C
Winds 6.0 mph 9.7 kmh Calm Calm 1.0 mph ESE1.6 kmh ESE
Wind Gusts 9.1 mph14.6 kmh -- 2.0 mph3.2 kmh
Humidity 99% 76% 91%
Pressure 30.34 in1027.4 mb 30.03 in1016.9 mb -
Precipitation 0.00 in0.0 mm - -
Hour Temp Dew Point Humidity Winds Wind Gusts Pressure Precip Precip Rate Daily Precip Total
12:00 AM 56.0°F13.3°C 55.4°F13.0°C 98% Calm Calm -- 30.03 in1016.9 mb 0.00 in0.0 mm 0.00 in0.0 mm 0.00 in0.0 mm
12:15 AM 55.9°F13.3°C 55.3°F12.9°C 98% Calm Calm -- 30.04 in1017.3 mb 0.00 in0.0 mm 0.00 in0.0 mm 0.00 in0.0 mm
12:30 AM 55.8°F13.2°C 55.2°F12.9°C 98% Calm Calm -- 30.03 in1016.9 mb 0.00 in0.0 mm 0.00 in0.0 mm 0.00 in0.0 mm
12:45 AM 55.6°F13.1°C 55.0°F12.8°C 98% Calm Calm -- 30.04 in1017.3 mb 0.00 in0.0 mm 0.00 in0.0 mm 0.00 in0.0 mm
01:00 AM 55.7°F13.2°C 55.1°F12.8°C 98% Calm Calm -- 30.03 in1016.9 mb 0.00 in0.0 mm 0.00 in0.0 mm 0.00 in0.0 mm
01:15 AM 55.6°F13.1°C 55.0°F12.8°C 98% Calm Calm -- 30.05 in1017.6 mb 0.00 in0.0 mm 0.00 in0.0 mm 0.00 in0.0 mm
01:30 AM 55.4°F13.0°C 54.8°F12.7°C 98% Calm Calm -- 30.06 in1017.9 mb 0.00 in0.0 mm 0.00 in0.0 mm 0.00 in0.0 mm
01:45 AM 55.5°F13.1°C 54.9°F12.7°C 98% Calm Calm -- 30.06 in1017.9 mb 0.00 in0.0 mm 0.00 in0.0 mm 0.00 in0.0 mm
02:00 AM 55.3°F12.9°C 54.7°F12.6°C 98% Calm Calm -- 30.06 in1017.9 mb 0.00 in0.0 mm 0.00 in0.0 mm 0.00 in0.0 mm
02:15 AM 56.0°F13.3°C 55.7°F13.2°C 99% 2.0 mph NNE3.2 kmh NNE 3.0 mph4.8 kmh 30.06 in1017.9 mb 0.00 in0.0 mm 0.00 in0.0 mm 0.00 in0.0 mm
02:30 AM 56.2°F13.4°C 55.6°F13.1°C 98% 3.0 mph NNE4.8 kmh NNE 3.0 mph4.8 kmh 30.08 in1018.6 mb 0.00 in0.0 mm 0.00 in0.0 mm 0.00 in0.0 mm
02:45 AM 56.0°F13.3°C 55.4°F13.0°C 98% Calm Calm -- 30.08 in1018.6 mb 0.00 in0.0 mm 0.00 in0.0 mm 0.00 in0.0 mm
03:00 AM 55.8°F13.2°C 55.2°F12.9°C 98% 1.0 mph ENE1.6 kmh ENE 2.0 mph3.2 kmh 30.07 in1018.3 mb 0.00 in0.0 mm 0.00 in0.0 mm 0.00 in0.0 mm
03:15 AM 55.6°F13.1°C 55.0°F12.8°C 98% 2.0 mph NNE3.2 kmh NNE 2.0 mph3.2 kmh 30.07 in1018.3 mb 0.00 in0.0 mm 0.00 in0.0 mm 0.00 in0.0 mm
03:30 AM 55.4°F13.0°C 54.8°F12.7°C 98% Calm Calm -- 30.07 in1018.3 mb 0.00 in0.0 mm 0.00 in0.0 mm 0.00 in0.0 mm
03:45 AM 55.3°F12.9°C 54.7°F12.6°C 98% 2.0 mph E3.2 kmh E 2.0 mph3.2 kmh 30.08 in1018.6 mb 0.00 in0.0 mm 0.00 in0.0 mm 0.00 in0.0 mm
04:00 AM 55.1°F12.8°C 54.5°F12.5°C 98% 3.0 mph SE4.8 kmh SE 3.0 mph4.8 kmh 30.05 in1017.6 mb 0.00 in0.0 mm 0.00 in0.0 mm 0.00 in0.0 mm
04:15 AM 55.0°F12.8°C 54.4°F12.4°C 98% 2.0 mph SE3.2 kmh SE 2.0 mph3.2 kmh 30.07 in1018.3 mb 0.00 in0.0 mm 0.00 in0.0 mm 0.00 in0.0 mm
04:30 AM 54.8°F12.7°C 54.2°F12.3°C 98% Calm Calm -- 30.08 in1018.6 mb 0.00 in0.0 mm 0.00 in0.0 mm 0.00 in0.0 mm
04:45 AM 54.7°F12.6°C 54.1°F12.3°C 98% 2.0 mph N3.2 kmh N 3.0 mph4.8 kmh 30.08 in1018.6 mb 0.00 in0.0 mm 0.00 in0.0 mm 0.00 in0.0 mm
05:00 AM 54.5°F12.5°C 54.2°F12.3°C 99% 2.0 mph N3.2 kmh N 2.0 mph3.2 kmh 30.09 in1019.0 mb 0.01 in0.3 mm 0.01 in0.3 mm 0.01 in0.3 mm
05:15 AM 54.3°F12.4°C 53.7°F12.1°C 98% Calm Calm -- 30.10 in1019.3 mb 0.01 in0.3 mm 0.00 in0.0 mm 0.01 in0.3 mm
05:30 AM 54.4°F12.4°C 54.1°F12.3°C 99% 1.0 mph N1.6 kmh N 3.0 mph4.8 kmh 30.10 in1019.3 mb 0.01 in0.3 mm 0.00 in0.0 mm 0.01 in0.3 mm
05:45 AM 54.3°F12.4°C 54.0°F12.2°C 99% 1.0 mph NE1.6 kmh NE 2.0 mph3.2 kmh 30.10 in1019.3 mb 0.01 in0.3 mm 0.00 in0.0 mm 0.01 in0.3 mm
06:00 AM 54.3°F12.4°C 54.0°F12.2°C 99% 1.0 mph NE1.6 kmh NE 2.0 mph3.2 kmh 30.10 in1019.3 mb 0.00 in0.0 mm 0.00 in0.0 mm 0.01 in0.3 mm
06:15 AM 54.2°F12.3°C 53.9°F12.2°C 99% 3.0 mph ESE4.8 kmh ESE 3.0 mph4.8 kmh 30.11 in1019.6 mb 0.00 in0.0 mm 0.00 in0.0 mm 0.01 in0.3 mm
06:30 AM 54.3°F12.4°C 54.0°F12.2°C 99% 3.0 mph E4.8 kmh E 5.1 mph8.2 kmh 30.12 in1020.0 mb 0.00 in0.0 mm 0.00 in0.0 mm 0.01 in0.3 mm
06:45 AM 53.7°F12.1°C 52.8°F11.6°C 97% Calm Calm 7.1 mph11.4 kmh 30.12 in1020.0 mb 0.01 in0.3 mm 0.04 in1.0 mm 0.02 in0.5 mm
07:00 AM 53.1°F11.7°C 52.0°F11.1°C 96% 1.0 mph E1.6 kmh E 3.0 mph4.8 kmh 30.13 in1020.3 mb 0.01 in0.3 mm 0.00 in0.0 mm 0.02 in0.5 mm
07:15 AM 52.8°F11.6°C 51.4°F10.8°C 95% 2.0 mph E3.2 kmh E 4.0 mph6.4 kmh 30.15 in1021.0 mb 0.01 in0.3 mm 0.00 in0.0 mm 0.02 in0.5 mm
07:30 AM 52.5°F11.4°C 50.2°F10.1°C 92% 3.0 mph E4.8 kmh E 6.1 mph9.8 kmh 30.16 in1021.3 mb 0.01 in0.3 mm 0.00 in0.0 mm 0.02 in0.5 mm
07:45 AM 52.1°F11.2°C 49.2°F9.6°C 90% 3.0 mph NE4.8 kmh NE 9.1 mph14.6 kmh 30.17 in1021.7 mb 0.01 in0.3 mm 0.00 in0.0 mm 0.02 in0.5 mm
08:00 AM 52.1°F11.2°C 48.9°F9.4°C 89% 2.0 mph ENE3.2 kmh ENE 3.0 mph4.8 kmh 30.18 in1022.0 mb 0.00 in0.0 mm 0.00 in0.0 mm 0.02 in0.5 mm
08:15 AM 52.1°F11.2°C 48.0°F8.9°C 86% 1.0 mph ESE1.6 kmh ESE 5.1 mph8.2 kmh 30.19 in1022.4 mb 0.00 in0.0 mm 0.00 in0.0 mm 0.02 in0.5 mm
08:30 AM 52.2°F11.2°C 47.5°F8.6°C 84% 5.0 mph N8.0 kmh N 6.1 mph9.8 kmh 30.20 in1022.7 mb 0.00 in0.0 mm 0.00 in0.0 mm 0.02 in0.5 mm
08:45 AM 52.2°F11.2°C 47.2°F8.4°C 83% 4.0 mph ENE6.4 kmh ENE 5.1 mph8.2 kmh 30.20 in1022.7 mb 0.00 in0.0 mm 0.00 in0.0 mm 0.02 in0.5 mm
09:00 AM 52.3°F11.3°C 47.9°F8.8°C 85% Calm Calm 5.1 mph8.2 kmh 30.19 in1022.4 mb 0.00 in0.0 mm 0.00 in0.0 mm 0.02 in0.5 mm
09:15 AM 52.3°F11.3°C 46.6°F8.1°C 81% 3.0 mph NE4.8 kmh NE 7.1 mph11.4 kmh 30.18 in1022.0 mb 0.00 in0.0 mm 0.00 in0.0 mm 0.02 in0.5 mm
09:30 AM 52.3°F11.3°C 46.6°F8.1°C 81% 1.0 mph NE1.6 kmh NE 5.1 mph8.2 kmh 30.18 in1022.0 mb 0.00 in0.0 mm 0.00 in0.0 mm 0.02 in0.5 mm
09:45 AM 52.2°F11.2°C 45.5°F7.5°C 78% 4.0 mph ENE6.4 kmh ENE 6.1 mph9.8 kmh 30.19 in1022.4 mb 0.00 in0.0 mm 0.00 in0.0 mm 0.02 in0.5 mm
10:00 AM 52.1°F11.2°C 45.1°F7.3°C 77% 6.0 mph NNE9.7 kmh NNE 9.1 mph14.6 kmh 30.21 in1023.0 mb 0.00 in0.0 mm 0.00 in0.0 mm 0.02 in0.5 mm
10:15 AM 51.9°F11.1°C 44.5°F6.9°C 76% 5.0 mph N8.0 kmh N 8.1 mph13.0 kmh 30.21 in1023.0 mb 0.00 in0.0 mm 0.00 in0.0 mm 0.02 in0.5 mm
10:30 AM 51.6°F10.9°C 46.9°F8.3°C 84% 3.0 mph NNE4.8 kmh NNE 4.0 mph6.4 kmh 30.21 in1023.0 mb 0.01 in0.3 mm 0.04 in1.0 mm 0.03 in0.8 mm
10:45 AM 51.2°F10.7°C 46.5°F8.1°C 84% 3.0 mph N4.8 kmh N 6.1 mph9.8 kmh 30.23 in1023.7 mb 0.01 in0.3 mm 0.00 in0.0 mm 0.03 in0.8 mm
11:00 AM 51.3°F10.7°C 46.9°F8.3°C 85% 5.0 mph NE8.0 kmh NE 7.1 mph11.4 kmh 30.21 in1023.0 mb 0.01 in0.3 mm 0.00 in0.0 mm 0.03 in0.8 mm
11:15 AM 51.2°F10.7°C 46.8°F8.2°C 85% 6.0 mph N9.7 kmh N 7.1 mph11.4 kmh 30.22 in1023.4 mb 0.01 in0.3 mm 0.00 in0.0 mm 0.03 in0.8 mm
11:30 AM 50.8°F10.4°C 46.4°F8.0°C 85% 3.0 mph ENE4.8 kmh ENE 5.1 mph8.2 kmh 30.23 in1023.7 mb 0.00 in0.0 mm 0.00 in0.0 mm 0.03 in0.8 mm
11:45 AM 50.7°F10.4°C 46.9°F8.3°C 87% 1.0 mph E1.6 kmh E 4.0 mph6.4 kmh 30.19 in1022.4 mb 0.00 in0.0 mm 0.00 in0.0 mm 0.03 in0.8 mm
12:00 PM 50.7°F10.4°C 46.3°F7.9°C 85% 1.0 mph E1.6 kmh E 3.0 mph4.8 kmh 30.22 in1023.4 mb 0.00 in0.0 mm 0.00 in0.0 mm 0.03 in0.8 mm
12:15 PM 50.8°F10.4°C 46.4°F8.0°C 85% 1.0 mph NNE1.6 kmh NNE 2.0 mph3.2 kmh 30.23 in1023.7 mb 0.00 in0.0 mm 0.00 in0.0 mm 0.03 in0.8 mm
12:30 PM 50.9°F10.5°C 46.8°F8.2°C 86% 1.0 mph N1.6 kmh N 3.0 mph4.8 kmh 30.23 in1023.7 mb 0.01 in0.3 mm 0.04 in1.0 mm 0.04 in1.0 mm
12:45 PM 50.7°F10.4°C 47.2°F8.4°C 88% 2.0 mph NNE3.2 kmh NNE 3.0 mph4.8 kmh 30.23 in1023.7 mb 0.02 in0.5 mm 0.04 in1.0 mm 0.05 in1.3 mm
01:00 PM 50.6°F10.3°C 47.7°F8.7°C 90% 4.0 mph NW6.4 kmh NW 5.1 mph8.2 kmh 30.24 in1024.0 mb 0.02 in0.5 mm 0.00 in0.0 mm 0.05 in1.3 mm
01:15 PM 50.7°F10.4°C 46.9°F8.3°C 87% 1.0 mph N1.6 kmh N 1.0 mph1.6 kmh 30.23 in1023.7 mb 0.03 in0.8 mm 0.04 in1.0 mm 0.06 in1.5 mm
01:30 PM 50.5°F10.3°C 47.6°F8.7°C 90% 1.0 mph E1.6 kmh E 2.0 mph3.2 kmh 30.23 in1023.7 mb 0.02 in0.5 mm 0.00 in0.0 mm 0.06 in1.5 mm
01:45 PM 51.0°F10.6°C 47.5°F8.6°C 88% 4.0 mph NNE6.4 kmh NNE 4.0 mph6.4 kmh 30.23 in1023.7 mb 0.02 in0.5 mm 0.00 in0.0 mm 0.06 in1.5 mm
02:00 PM 50.8°F10.4°C 47.0°F8.3°C 87% 2.0 mph NNE3.2 kmh NNE 4.0 mph6.4 kmh 30.23 in1023.7 mb 0.01 in0.3 mm 0.00 in0.0 mm 0.06 in1.5 mm
02:15 PM 50.6°F10.3°C 46.5°F8.1°C 86% 4.0 mph N6.4 kmh N 5.1 mph8.2 kmh 30.23 in1023.7 mb 0.01 in0.3 mm 0.00 in0.0 mm 0.06 in1.5 mm
02:30 PM 50.3°F10.2°C 46.8°F8.2°C 88% Calm Calm 3.0 mph4.8 kmh 30.24 in1024.0 mb 0.00 in0.0 mm 0.00 in0.0 mm 0.06 in1.5 mm
02:45 PM 50.7°F10.4°C 47.2°F8.4°C 88% 2.0 mph N3.2 kmh N 4.0 mph6.4 kmh 30.23 in1023.7 mb 0.00 in0.0 mm 0.00 in0.0 mm 0.06 in1.5 mm
03:00 PM 50.8°F10.4°C 46.7°F8.2°C 86% 4.0 mph NNW6.4 kmh NNW 8.1 mph13.0 kmh 30.22 in1023.4 mb 0.00 in0.0 mm 0.00 in0.0 mm 0.06 in1.5 mm
03:15 PM 50.9°F10.5°C 46.2°F7.9°C 84% Calm Calm 1.0 mph1.6 kmh 30.22 in1023.4 mb 0.00 in0.0 mm 0.00 in0.0 mm 0.06 in1.5 mm
03:30 PM 51.6°F10.9°C 45.6°F7.6°C 80% 1.0 mph N1.6 kmh N 3.0 mph4.8 kmh 30.23 in1023.7 mb 0.00 in0.0 mm 0.00 in0.0 mm 0.06 in1.5 mm
03:45 PM 51.7°F10.9°C 45.4°F7.4°C 79% 2.0 mph SW3.2 kmh SW 4.0 mph6.4 kmh 30.23 in1023.7 mb 0.00 in0.0 mm 0.00 in0.0 mm 0.06 in1.5 mm
04:00 PM 51.7°F10.9°C 45.4°F7.4°C 79% 3.0 mph SW4.8 kmh SW 3.0 mph4.8 kmh 30.23 in1023.7 mb 0.00 in0.0 mm 0.00 in0.0 mm 0.06 in1.5 mm
04:15 PM 51.7°F10.9°C 45.7°F7.6°C 80% 2.0 mph SW3.2 kmh SW 2.0 mph3.2 kmh 30.23 in1023.7 mb 0.00 in0.0 mm 0.00 in0.0 mm 0.06 in1.5 mm
04:30 PM 51.6°F10.9°C 44.6°F7.0°C 77% Calm Calm -- 30.22 in1023.4 mb 0.00 in0.0 mm 0.00 in0.0 mm 0.06 in1.5 mm
04:45 PM 51.4°F10.8°C 45.1°F7.3°C 79% Calm Calm -- 30.23 in1023.7 mb 0.00 in0.0 mm 0.00 in0.0 mm 0.06 in1.5 mm
05:00 PM 51.1°F10.6°C 46.1°F7.8°C 83% Calm Calm -- 30.24 in1024.0 mb 0.00 in0.0 mm 0.00 in0.0 mm 0.06 in1.5 mm
05:15 PM 51.0°F10.6°C 46.0°F7.8°C 83% 2.0 mph WSW3.2 kmh WSW 2.0 mph3.2 kmh 30.25 in1024.4 mb 0.00 in0.0 mm 0.00 in0.0 mm 0.06 in1.5 mm
05:30 PM 50.9°F10.5°C 45.6°F7.6°C 82% Calm Calm -- 30.25 in1024.4 mb 0.00 in0.0 mm 0.00 in0.0 mm 0.06 in1.5 mm
05:45 PM 50.6°F10.3°C 46.2°F7.9°C 85% Calm Calm -- 30.26 in1024.7 mb 0.00 in0.0 mm 0.00 in0.0 mm 0.06 in1.5 mm
06:00 PM 50.3°F10.2°C 45.9°F7.7°C 85% Calm Calm 2.0 mph3.2 kmh 30.25 in1024.4 mb 0.00 in0.0 mm 0.00 in0.0 mm 0.06 in1.5 mm
06:15 PM 50.1°F10.1°C 45.7°F7.6°C 85% Calm Calm 1.0 mph1.6 kmh 30.25 in1024.4 mb 0.00 in0.0 mm 0.00 in0.0 mm 0.06 in1.5 mm
06:30 PM 49.8°F9.9°C 45.7°F7.6°C 86% Calm Calm -- 30.26 in1024.7 mb 0.00 in0.0 mm 0.00 in0.0 mm 0.06 in1.5 mm
06:45 PM 49.4°F9.7°C 45.7°F7.6°C 87% Calm Calm -- 30.26 in1024.7 mb 0.00 in0.0 mm 0.00 in0.0 mm 0.06 in1.5 mm
07:00 PM 48.8°F9.3°C 45.5°F7.5°C 88% Calm Calm -- 30.27 in1025.1 mb 0.00 in0.0 mm 0.00 in0.0 mm 0.06 in1.5 mm
07:15 PM 47.8°F8.8°C 45.1°F7.3°C 90% Calm Calm -- 30.29 in1025.7 mb 0.00 in0.0 mm 0.00 in0.0 mm 0.06 in1.5 mm
07:30 PM 46.9°F8.3°C 44.5°F6.9°C 91% Calm Calm -- 30.29 in1025.7 mb 0.00 in0.0 mm 0.00 in0.0 mm 0.06 in1.5 mm
07:45 PM 46.0°F7.8°C 43.8°F6.6°C 92% Calm Calm -- 30.29 in1025.7 mb 0.00 in0.0 mm 0.00 in0.0 mm 0.06 in1.5 mm
08:00 PM 45.2°F7.3°C 43.3°F6.3°C 93% Calm Calm -- 30.30 in1026.1 mb 0.00 in0.0 mm 0.00 in0.0 mm 0.06 in1.5 mm
08:15 PM 44.1°F6.7°C 42.5°F5.8°C 94% Calm Calm -- 30.30 in1026.1 mb 0.00 in0.0 mm 0.00 in0.0 mm 0.06 in1.5 mm
08:30 PM 43.3°F6.3°C 42.0°F5.6°C 95% Calm Calm -- 30.30 in1026.1 mb 0.00 in0.0 mm 0.00 in0.0 mm 0.06 in1.5 mm
08:45 PM 42.9°F6.1°C 41.9°F5.5°C 96% Calm Calm -- 30.31 in1026.4 mb 0.00 in0.0 mm 0.00 in0.0 mm 0.06 in1.5 mm
09:00 PM 42.2°F5.7°C 41.2°F5.1°C 96% Calm Calm -- 30.32 in1026.8 mb 0.00 in0.0 mm 0.00 in0.0 mm 0.06 in1.5 mm
09:15 PM 41.9°F5.5°C 41.1°F5.1°C 97% Calm Calm -- 30.33 in1027.1 mb 0.00 in0.0 mm 0.00 in0.0 mm 0.06 in1.5 mm
09:30 PM 41.4°F5.2°C 40.6°F4.8°C 97% Calm Calm -- 30.34 in1027.4 mb 0.00 in0.0 mm 0.00 in0.0 mm 0.06 in1.5 mm
09:45 PM 40.5°F4.7°C 39.7°F4.3°C 97% Calm Calm -- 30.33 in1027.1 mb 0.00 in0.0 mm 0.00 in0.0 mm 0.06 in1.5 mm
10:00 PM 40.3°F4.6°C 39.5°F4.2°C 97% Calm Calm -- 30.33 in1027.1 mb 0.00 in0.0 mm 0.00 in0.0 mm 0.06 in1.5 mm
10:15 PM 39.5°F4.2°C 38.7°F3.7°C 97% Calm Calm -- 30.33 in1027.1 mb 0.00 in0.0 mm 0.00 in0.0 mm 0.06 in1.5 mm
10:30 PM 39.2°F4.0°C 38.4°F3.6°C 97% Calm Calm -- 30.33 in1027.1 mb 0.00 in0.0 mm 0.00 in0.0 mm 0.06 in1.5 mm
10:45 PM 39.1°F3.9°C 38.6°F3.7°C 98% Calm Calm -- 30.33 in1027.1 mb 0.00 in0.0 mm 0.00 in0.0 mm 0.06 in1.5 mm
11:00 PM 38.3°F3.5°C 37.5°F3.1°C 97% Calm Calm -- 30.33 in1027.1 mb 0.00 in0.0 mm 0.00 in0.0 mm 0.06 in1.5 mm
11:15 PM 37.9°F3.3°C 37.1°F2.8°C 97% Calm Calm -- 30.34 in1027.4 mb 0.00 in0.0 mm 0.00 in0.0 mm 0.06 in1.5 mm
11:30 PM 37.8°F3.2°C 37.3°F2.9°C 98% Calm Calm -- 30.34 in1027.4 mb 0.00 in0.0 mm 0.00 in0.0 mm 0.06 in1.5 mm
11:45 PM 37.7°F3.2°C 37.2°F2.9°C 98% Calm Calm -- 30.34 in1027.4 mb 0.00 in0.0 mm 0.00 in0.0 mm 0.06 in1.5 mm